Nearby METAR Reports

 

KTTN - Trenton, New Jersey, USA
Distance from station: W 8mi, 12km
Updated: Mon, 24-Jan-2022 10:53pm EST
Overcast
Overcast
 Wind from S
Wind: S 7 mph , 11 km/h
Temperature: 34°F , 1°C
Wind Chill: 28°F , -2°C
Dew Point: 25°F , -4°C
Humidity: 70%
Barometer: 29.84 inHg , 1010.5 hPa
Clouds: Overcast
Visibility: 10 miles , 16 km
Cloud details: Overcast 6000 ft
2022/01/25 03:53 KTTN 250353Z AUTO 17006KT 10SM OVC060 01/M04 A2984 RMK AO2 SLP102 T00061044
KWRI - Wrightst/Mcguire, New Jersey, USA
Distance from station: SSE 18mi, 29km
Updated: Mon, 24-Jan-2022 10:56pm EST
Overcast
Overcast
 Wind from S
Wind: S 8 mph , 13 km/h
Temperature: 34°F , 1°C
Wind Chill: 27°F , -3°C
Dew Point: 25°F , -4°C
Humidity: 70%
Barometer: 29.85 inHg , 1010.8 hPa
Clouds: Overcast
Visibility: 10 miles , 16 km
Cloud details: Overcast 6000 ft
2022/01/25 03:56 KWRI 250356Z AUTO 18007KT 10SM OVC060 01/M04 A2985 RMK AO2 SLP109 T00131036 $
KPNE - Philadelphia/Ne, Pennsylvania, USA
Distance from station: SW 22mi, 35km
Updated: Mon, 24-Jan-2022 10:54pm EST
Overcast
Overcast
 Wind from S
Wind: S 5 mph , 7 km/h
Temperature: 34°F , 1°C
Wind Chill: 29°F , -2°C
Dew Point: 23°F , -5°C
Humidity: 65%
Barometer: 29.87 inHg , 1011.5 hPa
Clouds: Overcast
Visibility: 10 miles , 16 km
Cloud details: Overcast 6000 ft
2022/01/25 03:54 KPNE 250354Z 19004KT 10SM OVC060 01/M05 A2987 RMK AO2 SLP114 T00111050
 
KDYL - Doylestown, Pennsylvania, USA
Distance from station: W 24mi, 38km
Updated: Mon, 24-Jan-2022 10:54pm EST
Overcast
Overcast
 Wind from S
Wind: S 6 mph , 9 km/h
Temperature: 34°F , 1°C
Wind Chill: 29°F , -2°C
Dew Point: 21°F , -6°C
Humidity: 60%
Barometer: 29.82 inHg , 1009.8 hPa
Clouds: Overcast
Visibility: 10 miles , 16 km
Cloud details: Overcast 5500 ft
2022/01/25 03:54 KDYL 250354Z AUTO 17005KT 10SM OVC055 01/M06 A2982 RMK AO2 SLP105 T00111056 $
KSMQ - Somerville, New Jersey, USA
Distance from station: 0 24mi, 39km
Updated: Mon, 24-Jan-2022 10:53pm EST
Overcast
Overcast
 Wind from SSE
Wind: SSE 3 mph , 6 km/h
Temperature: 32°F , 0°C
Dew Point: 23°F , -5°C
Humidity: 69%
Barometer: 29.83 inHg , 1010.2 hPa
Clouds: Overcast
Visibility: 10 miles , 16 km
Cloud details: Overcast 6500 ft
2022/01/25 03:53 KSMQ 250353Z AUTO 16003KT 10SM OVC065 00/M05 A2983 RMK AO2 SLP105 T00001050
KVAY - Mount Holly, New Jersey, USA
Distance from station: SSW 24mi, 39km
Updated: Mon, 24-Jan-2022 10:54pm EST
Overcast
Overcast
 Wind from S
Wind: S 5 mph , 7 km/h
Temperature: 36°F , 2°C
Wind Chill: 32°F , 0°C
Dew Point: 25°F , -4°C
Humidity: 65%
Barometer: 29.86 inHg , 1011.2 hPa
Clouds: Overcast
Visibility: 10 miles , 16 km
Cloud details: Overcast 6000 ft
2022/01/25 03:54 KVAY 250354Z AUTO 17004KT 10SM OVC060 02/M04 A2986 RMK AO2 SLP111 T00171039
 
KNEL - Lakehurst Nas, New Jersey, USA
Distance from station: SE 25mi, 40km
Updated: Mon, 24-Jan-2022 11:00pm EST
Overcast
Overcast
 Wind from SE
Wind: SE 3 mph , 6 km/h
Temperature: 34°F , 1°C
Dew Point: 25°F , -4°C
Humidity: 70%
Barometer: 29.86 inHg , 1011.2 hPa
Clouds: Overcast
Cloud details: Overcast 6000 ft
2022/01/25 04:00 KNEL 250400Z 13003KT OVC060 01/M04 A2986 RMK AO2 SLP109 T00061044 $
KBLM - Belmar/Farmdale, New Jersey, USA
Distance from station: ESE 30mi, 48km
Updated: Mon, 24-Jan-2022 10:56pm EST
Overcast
Overcast
 Wind from S
Wind: S 3 mph , 6 km/h
Temperature: 36°F , 2°C
Dew Point: 27°F , -3°C
Humidity: 70%
Barometer: 29.87 inHg , 1011.5 hPa
Clouds: Overcast
Visibility: 10 miles , 16 km
Cloud details: Overcast 8000 ft
2022/01/25 03:56 KBLM 250356Z AUTO 17003KT 10SM OVC080 02/M03 A2987 RMK AO2 SLP118 T00171028 FZRANO
KMJX - Toms River, New Jersey, USA
Distance from station: SE 30mi, 49km
Updated: Mon, 24-Jan-2022 10:56pm EST
Overcast
Overcast
 Wind from calm
Wind: Calm
Temperature: 32°F , 0°C
Dew Point: 25°F , -4°C
Humidity: 75%
Barometer: 29.88 inHg , 1011.9 hPa
Clouds: Overcast
Visibility: 10 miles , 16 km
Cloud details: Mostly cloudy 6500 ft
Overcast 8000 ft
2022/01/25 03:56 KMJX 250356Z AUTO 00000KT 10SM BKN065 OVC080 00/M04 A2988 RMK AO2 SLP122 T00001039 FZRANO
 
KLOM - Philly Wings F, Pennsylvania, USA
Distance from station: WSW 33mi, 52km
Updated: Mon, 24-Jan-2022 11:15pm EST
Overcast
Overcast
 Wind from S
Wind: S 8 mph , 13 km/h
Temperature: 34°F , 1°C
Wind Chill: 27°F , -3°C
Dew Point: 25°F , -4°C
Humidity: 70%
Barometer: 29.84 inHg , 1010.5 hPa
Clouds: Overcast
Visibility: 10 miles , 16 km
Cloud details: Overcast 6000 ft
2022/01/25 04:15 KLOM 250415Z AUTO 19007KT 10SM OVC060 01/M04 A2984 RMK AO2 T00081039
KCKZ - Perkasie, Pennsylvania, USA
Distance from station: WNW 33mi, 53km
Updated: Mon, 24-Jan-2022 11:15pm EST
Overcast
Overcast
 Wind from SSW
Wind: SSW 6 mph , 9 km/h
Temperature: 32°F , 0°C
Wind Chill: 26°F , -3°C
Dew Point: 25°F , -4°C
Humidity: 75%
Barometer: 29.83 inHg , 1010.2 hPa
Clouds: Overcast
Visibility: 10 miles , 16 km
Cloud details: Overcast 5000 ft
2022/01/25 04:15 KCKZ 250415Z AUTO 21005KT 10SM OVC050 00/M04 A2983 RMK AO2
KLDJ - Linden, New Jersey, USA
Distance from station: NE 33mi, 53km
Updated: Mon, 24-Jan-2022 11:35pm EST
Overcast
Overcast
 Wind from calm
Wind: Calm
Temperature: 34°F , 1°C
Dew Point: 23°F , -5°C
Humidity: 65%
Barometer: 29.87 inHg , 1011.5 hPa
Clouds: Overcast
Visibility: 10 miles , 16 km
Cloud details: Overcast 6500 ft
2022/01/25 04:35 KLDJ 250435Z AUTO 00000KT 10SM OVC065 01/M05 A2987 RMK AO2 T00101053
 
KMMU - Morristown Muni, New Jersey, USA
Distance from station: NNE 38mi, 62km
Updated: Mon, 24-Jan-2022 11:15pm EST
Overcast
Overcast
 Wind from calm
Wind: Calm
Temperature: 32°F , 0°C
Dew Point: 23°F , -5°C
Humidity: 69%
Barometer: 29.85 inHg , 1010.8 hPa
Clouds: Overcast
Visibility: 10 miles , 16 km
Cloud details: Overcast 6000 ft
2022/01/25 04:15 KMMU 250415Z AUTO 00000KT 10SM OVC060 M00/M05 A2985 RMK AO2
KEWR - Newark, New Jersey, USA
Distance from station: NE 39mi, 63km
Updated: Mon, 24-Jan-2022 10:51pm EST
Overcast
Overcast
 Wind from SSE
Wind: SSE 6 mph , 9 km/h
Temperature: 32°F , 0°C
Wind Chill: 26°F , -3°C
Dew Point: 23°F , -5°C
Humidity: 69%
Barometer: 29.86 inHg , 1011.2 hPa
Clouds: Overcast
Visibility: 10 miles , 16 km
Cloud details: Overcast 6500 ft
2022/01/25 03:51 KEWR 250351Z 16005KT 10SM OVC065 00/M05 A2986 RMK AO2 SLP111 T00001050
KUKT - Quakertown Arp, Pennsylvania, USA
Distance from station: WNW 39mi, 63km
Updated: Mon, 24-Jan-2022 11:15pm EST
Overcast
Overcast
 Wind from S
Wind: S 5 mph , 7 km/h
Temperature: 32°F , 0°C
Wind Chill: 27°F , -3°C
Dew Point: 25°F , -4°C
Humidity: 75%
Barometer: 29.82 inHg , 1009.8 hPa
Clouds: Overcast
Visibility: 10 miles , 16 km
Cloud details: Overcast 5000 ft
2022/01/25 04:15 KUKT 250415Z AUTO 17004KT 10SM OVC050 M00/M04 A2982 RMK A01
 
KPHL - Philadelphia, Pennsylvania, USA
Distance from station: SW 40mi, 65km
Updated: Mon, 24-Jan-2022 10:54pm EST
Overcast
Overcast
 Wind from SSW
Wind: SSW 5 mph , 7 km/h
Temperature: 36°F , 2°C
Wind Chill: 32°F , 0°C
Dew Point: 27°F , -3°C
Humidity: 70%
Barometer: 29.86 inHg , 1011.2 hPa
Clouds: Overcast
Visibility: 10 miles , 16 km
Cloud details: Overcast 6000 ft
2022/01/25 03:54 KPHL 250354Z 20004KT 10SM OVC060 02/M03 A2986 RMK AO2 SLP110 T00221033
KJRB - Manhattan/Dwntwn, New York, USA
Distance from station: NE 46mi, 74km
Updated: Sat, 13-Nov-2021 12:56pm EST
NOT Current
Partly cloudy
Partly cloudy
 Wind from S
Wind: S 13 mph , 20 km/h, Gust: 21 mph , 33 km/h
Temperature: 63°F , 17°C
Dew Point: 50°F , 10°C
Humidity: 64%
Barometer: 29.65 inHg , 1004.1 hPa
Clouds: Partly cloudy
Visibility: 10 miles , 16 km
Cloud details: Partly cloudy 7000 ft
2021/11/13 17:56 KJRB 131756Z AUTO 19011G18KT 10SM SCT070 17/10 A2965 RMK AO2 LTG DSNT W AND NW SLPNO 6//// T01720100
KPTW - Pottstown, Pennsylvania, USA
Distance from station: W 46mi, 74km
Updated: Mon, 24-Jan-2022 10:54pm EST
Overcast
Overcast
 Wind from varies
Wind: varies 5 mph , 7 km/h
Temperature: 32°F , 0°C
Wind Chill: 27°F , -3°C
Dew Point: 23°F , -5°C
Humidity: 69%
Barometer: 29.84 inHg , 1010.5 hPa
Clouds: Overcast
Visibility: 9 miles , 14 km
Cloud details: Overcast 5500 ft
2022/01/25 03:54 KPTW 250354Z AUTO VRB04KT 9SM OVC055 00/M05 A2984 RMK AO2 SLP104 T00001050
 
KCDW - Caldwell, New Jersey, USA
Distance from station: NNE 47mi, 76km
Updated: Mon, 24-Jan-2022 10:53pm EST
Overcast
Overcast
 Wind from SSW
Wind: SSW 5 mph , 7 km/h
Temperature: 36°F , 2°C
Wind Chill: 32°F , 0°C
Dew Point: 21°F , -6°C
Humidity: 56%
Barometer: 29.86 inHg , 1011.2 hPa
Clouds: Overcast
Visibility: 10 miles , 16 km
Cloud details: Overcast 6500 ft
2022/01/25 03:53 KCDW 250353Z 21004KT 10SM OVC065 02/M06 A2986 RMK AO2 SLP117 T00171061
KXLL - Allentown Queen, Pennsylvania, USA
Distance from station: WNW 47mi, 76km
Updated: Mon, 24-Jan-2022 11:15pm EST
Overcast
Overcast
 Wind from SSW
Wind: SSW 5 mph , 7 km/h
Temperature: 32°F , 0°C
Wind Chill: 27°F , -3°C
Dew Point: 25°F , -4°C
Humidity: 75%
Barometer: 29.83 inHg , 1010.2 hPa
Clouds: Overcast
Visibility: 10 miles , 16 km
Cloud details: Overcast 5000 ft
2022/01/25 04:15 KXLL 250415Z AUTO 21004KT 10SM OVC050 00/M04 A2983 RMK AO2